<?xml version="1.0" encoding="UTF-8" standalone="no" ?>
<gpx xmlns="http://www.topografix.com/GPX/1/1" xmlns:xsi="http://www.w3.org/2001/XMLSchema-instance" xsi:schemaLocation="http://www.topografix.com/GPX/1/1 http://www.topografix.com/GPX/1/1/gpx.xsd" version="1.1" creator="VisuGPX - https://www.visugpx.com">
  <metadata>
    <name>Course à pied dans l'après-midi</name>
  </metadata>
  <trk>
    <name><![CDATA[Course à pied dans l'après-midi_1]]></name>
    <trkseg>
      <trkpt lat="48.67099" lon="7.08366">
        <ele>278.9</ele>
        <time>2023-10-20T12:23:33Z</time>
      </trkpt>
      <trkpt lat="48.67087" lon="7.08389">
        <ele>278.8</ele>
        <time>2023-10-20T12:23:40Z</time>
      </trkpt>
      <trkpt lat="48.67076" lon="7.08412">
        <ele>278.8</ele>
        <time>2023-10-20T12:23:45Z</time>
      </trkpt>
      <trkpt lat="48.67066" lon="7.08435">
        <ele>278.7</ele>
        <time>2023-10-20T12:23:50Z</time>
      </trkpt>
      <trkpt lat="48.67067" lon="7.08462">
        <ele>278.7</ele>
        <time>2023-10-20T12:23:57Z</time>
      </trkpt>
      <trkpt lat="48.67085" lon="7.08467">
        <ele>278.7</ele>
        <time>2023-10-20T12:24:03Z</time>
      </trkpt>
      <trkpt lat="48.67102" lon="7.08462">
        <ele>278.7</ele>
        <time>2023-10-20T12:24:09Z</time>
      </trkpt>
      <trkpt lat="48.67114" lon="7.08441">
        <ele>278.8</ele>
        <time>2023-10-20T12:24:14Z</time>
      </trkpt>
      <trkpt lat="48.67128" lon="7.08421">
        <ele>278.9</ele>
        <time>2023-10-20T12:24:19Z</time>
      </trkpt>
      <trkpt lat="48.67142" lon="7.08401">
        <ele>279</ele>
        <time>2023-10-20T12:24:24Z</time>
      </trkpt>
      <trkpt lat="48.67158" lon="7.0838">
        <ele>279.1</ele>
        <time>2023-10-20T12:24:29Z</time>
      </trkpt>
      <trkpt lat="48.67172" lon="7.08356">
        <ele>279.3</ele>
        <time>2023-10-20T12:24:34Z</time>
      </trkpt>
      <trkpt lat="48.67187" lon="7.08336">
        <ele>279.2</ele>
        <time>2023-10-20T12:24:39Z</time>
      </trkpt>
      <trkpt lat="48.67204" lon="7.0832">
        <ele>279</ele>
        <time>2023-10-20T12:24:44Z</time>
      </trkpt>
      <trkpt lat="48.67222" lon="7.08306">
        <ele>278.9</ele>
        <time>2023-10-20T12:24:49Z</time>
      </trkpt>
      <trkpt lat="48.67241" lon="7.08295">
        <ele>278.9</ele>
        <time>2023-10-20T12:24:54Z</time>
      </trkpt>
      <trkpt lat="48.6726" lon="7.08284">
        <ele>279</ele>
        <time>2023-10-20T12:24:59Z</time>
      </trkpt>
      <trkpt lat="48.67277" lon="7.08272">
        <ele>279</ele>
        <time>2023-10-20T12:25:04Z</time>
      </trkpt>
      <trkpt lat="48.67293" lon="7.08257">
        <ele>279</ele>
        <time>2023-10-20T12:25:09Z</time>
      </trkpt>
      <trkpt lat="48.67302" lon="7.08236">
        <ele>278.9</ele>
        <time>2023-10-20T12:25:15Z</time>
      </trkpt>
      <trkpt lat="48.673" lon="7.08232">
        <ele>278.8</ele>
        <time>2023-10-20T12:25:16Z</time>
      </trkpt>
      <trkpt lat="48.67281" lon="7.08215">
        <ele>277.8</ele>
        <time>2023-10-20T12:25:21Z</time>
      </trkpt>
      <trkpt lat="48.67263" lon="7.08199">
        <ele>277.1</ele>
        <time>2023-10-20T12:25:26Z</time>
      </trkpt>
      <trkpt lat="48.67248" lon="7.0818">
        <ele>276.6</ele>
        <time>2023-10-20T12:25:31Z</time>
      </trkpt>
      <trkpt lat="48.67232" lon="7.08166">
        <ele>277</ele>
        <time>2023-10-20T12:25:36Z</time>
      </trkpt>
      <trkpt lat="48.67213" lon="7.08154">
        <ele>278.3</ele>
        <time>2023-10-20T12:25:41Z</time>
      </trkpt>
      <trkpt lat="48.67194" lon="7.08161">
        <ele>279.1</ele>
        <time>2023-10-20T12:25:47Z</time>
      </trkpt>
      <trkpt lat="48.67178" lon="7.08178">
        <ele>278.5</ele>
        <time>2023-10-20T12:25:52Z</time>
      </trkpt>
      <trkpt lat="48.67163" lon="7.08199">
        <ele>278.1</ele>
        <time>2023-10-20T12:25:57Z</time>
      </trkpt>
      <trkpt lat="48.67149" lon="7.08219">
        <ele>278.4</ele>
        <time>2023-10-20T12:26:02Z</time>
      </trkpt>
      <trkpt lat="48.67135" lon="7.08237">
        <ele>278.6</ele>
        <time>2023-10-20T12:26:07Z</time>
      </trkpt>
      <trkpt lat="48.67121" lon="7.08255">
        <ele>278.3</ele>
        <time>2023-10-20T12:26:13Z</time>
      </trkpt>
      <trkpt lat="48.6712" lon="7.08284">
        <ele>277.3</ele>
        <time>2023-10-20T12:26:18Z</time>
      </trkpt>
      <trkpt lat="48.6712" lon="7.08316">
        <ele>277.2</ele>
        <time>2023-10-20T12:26:24Z</time>
      </trkpt>
      <trkpt lat="48.67105" lon="7.08336">
        <ele>277.3</ele>
        <time>2023-10-20T12:26:30Z</time>
      </trkpt>
      <trkpt lat="48.67087" lon="7.08344">
        <ele>277.4</ele>
        <time>2023-10-20T12:26:35Z</time>
      </trkpt>
      <trkpt lat="48.67073" lon="7.08361">
        <ele>277.5</ele>
        <time>2023-10-20T12:26:40Z</time>
      </trkpt>
      <trkpt lat="48.67063" lon="7.08385">
        <ele>277.6</ele>
        <time>2023-10-20T12:26:45Z</time>
      </trkpt>
      <trkpt lat="48.67059" lon="7.08417">
        <ele>277.5</ele>
        <time>2023-10-20T12:26:51Z</time>
      </trkpt>
      <trkpt lat="48.67061" lon="7.08447">
        <ele>277.6</ele>
        <time>2023-10-20T12:26:57Z</time>
      </trkpt>
      <trkpt lat="48.67072" lon="7.08467">
        <ele>278</ele>
        <time>2023-10-20T12:27:03Z</time>
      </trkpt>
      <trkpt lat="48.67093" lon="7.08469">
        <ele>278.7</ele>
        <time>2023-10-20T12:27:08Z</time>
      </trkpt>
      <trkpt lat="48.67111" lon="7.08454">
        <ele>278.8</ele>
        <time>2023-10-20T12:27:13Z</time>
      </trkpt>
      <trkpt lat="48.67123" lon="7.08431">
        <ele>278.8</ele>
        <time>2023-10-20T12:27:18Z</time>
      </trkpt>
      <trkpt lat="48.67136" lon="7.08408">
        <ele>279</ele>
        <time>2023-10-20T12:27:23Z</time>
      </trkpt>
      <trkpt lat="48.67151" lon="7.08388">
        <ele>279.1</ele>
        <time>2023-10-20T12:27:28Z</time>
      </trkpt>
      <trkpt lat="48.67165" lon="7.08367">
        <ele>279.2</ele>
        <time>2023-10-20T12:27:33Z</time>
      </trkpt>
      <trkpt lat="48.6718" lon="7.08348">
        <ele>279.3</ele>
        <time>2023-10-20T12:27:38Z</time>
      </trkpt>
      <trkpt lat="48.67195" lon="7.08331">
        <ele>279.1</ele>
        <time>2023-10-20T12:27:43Z</time>
      </trkpt>
      <trkpt lat="48.67212" lon="7.08316">
        <ele>279</ele>
        <time>2023-10-20T12:27:48Z</time>
      </trkpt>
      <trkpt lat="48.67229" lon="7.08303">
        <ele>278.9</ele>
        <time>2023-10-20T12:27:53Z</time>
      </trkpt>
      <trkpt lat="48.67248" lon="7.0829">
        <ele>278.9</ele>
        <time>2023-10-20T12:27:59Z</time>
      </trkpt>
      <trkpt lat="48.67267" lon="7.08277">
        <ele>279</ele>
        <time>2023-10-20T12:28:05Z</time>
      </trkpt>
      <trkpt lat="48.67286" lon="7.08263">
        <ele>279</ele>
        <time>2023-10-20T12:28:11Z</time>
      </trkpt>
      <trkpt lat="48.67299" lon="7.08242">
        <ele>278.9</ele>
        <time>2023-10-20T12:28:18Z</time>
      </trkpt>
      <trkpt lat="48.67284" lon="7.08223">
        <ele>278.9</ele>
        <time>2023-10-20T12:28:24Z</time>
      </trkpt>
      <trkpt lat="48.67267" lon="7.08223">
        <ele>279</ele>
        <time>2023-10-20T12:28:29Z</time>
      </trkpt>
      <trkpt lat="48.6725" lon="7.0824">
        <ele>279</ele>
        <time>2023-10-20T12:28:35Z</time>
      </trkpt>
      <trkpt lat="48.67233" lon="7.08251">
        <ele>278.9</ele>
        <time>2023-10-20T12:28:40Z</time>
      </trkpt>
      <trkpt lat="48.67214" lon="7.08263">
        <ele>278.9</ele>
        <time>2023-10-20T12:28:46Z</time>
      </trkpt>
      <trkpt lat="48.67196" lon="7.08274">
        <ele>279</ele>
        <time>2023-10-20T12:28:52Z</time>
      </trkpt>
      <trkpt lat="48.67179" lon="7.0829">
        <ele>279.1</ele>
        <time>2023-10-20T12:28:58Z</time>
      </trkpt>
      <trkpt lat="48.67164" lon="7.08308">
        <ele>279.2</ele>
        <time>2023-10-20T12:29:05Z</time>
      </trkpt>
      <trkpt lat="48.6715" lon="7.08327">
        <ele>279.3</ele>
        <time>2023-10-20T12:29:11Z</time>
      </trkpt>
      <trkpt lat="48.67135" lon="7.08315">
        <ele>279.2</ele>
        <time>2023-10-20T12:29:17Z</time>
      </trkpt>
      <trkpt lat="48.67135" lon="7.0831">
        <ele>279.2</ele>
        <time>2023-10-20T12:29:18Z</time>
      </trkpt>
      <trkpt lat="48.6715" lon="7.08287">
        <ele>279.3</ele>
        <time>2023-10-20T12:29:24Z</time>
      </trkpt>
      <trkpt lat="48.67166" lon="7.08273">
        <ele>279.1</ele>
        <time>2023-10-20T12:29:29Z</time>
      </trkpt>
      <trkpt lat="48.67182" lon="7.08261">
        <ele>279</ele>
        <time>2023-10-20T12:29:34Z</time>
      </trkpt>
      <trkpt lat="48.67202" lon="7.0825">
        <ele>278.9</ele>
        <time>2023-10-20T12:29:40Z</time>
      </trkpt>
      <trkpt lat="48.67221" lon="7.08236">
        <ele>278.9</ele>
        <time>2023-10-20T12:29:46Z</time>
      </trkpt>
      <trkpt lat="48.67238" lon="7.0822">
        <ele>279</ele>
        <time>2023-10-20T12:29:52Z</time>
      </trkpt>
      <trkpt lat="48.67254" lon="7.08203">
        <ele>278.8</ele>
        <time>2023-10-20T12:29:58Z</time>
      </trkpt>
      <trkpt lat="48.67259" lon="7.08192">
        <ele>278.7</ele>
        <time>2023-10-20T12:30:01Z</time>
      </trkpt>
      <trkpt lat="48.67256" lon="7.08184">
        <ele>278.5</ele>
        <time>2023-10-20T12:30:03Z</time>
      </trkpt>
      <trkpt lat="48.67237" lon="7.08172">
        <ele>278.4</ele>
        <time>2023-10-20T12:30:08Z</time>
      </trkpt>
      <trkpt lat="48.67218" lon="7.0816">
        <ele>279.2</ele>
        <time>2023-10-20T12:30:14Z</time>
      </trkpt>
      <trkpt lat="48.672" lon="7.0817">
        <ele>279.8</ele>
        <time>2023-10-20T12:30:20Z</time>
      </trkpt>
      <trkpt lat="48.67182" lon="7.08184">
        <ele>279.6</ele>
        <time>2023-10-20T12:30:26Z</time>
      </trkpt>
      <trkpt lat="48.67166" lon="7.08199">
        <ele>279.3</ele>
        <time>2023-10-20T12:30:31Z</time>
      </trkpt>
      <trkpt lat="48.67149" lon="7.08218">
        <ele>279.8</ele>
        <time>2023-10-20T12:30:37Z</time>
      </trkpt>
      <trkpt lat="48.67135" lon="7.08236">
        <ele>279.8</ele>
        <time>2023-10-20T12:30:43Z</time>
      </trkpt>
      <trkpt lat="48.67122" lon="7.08258">
        <ele>279.3</ele>
        <time>2023-10-20T12:30:49Z</time>
      </trkpt>
      <trkpt lat="48.67121" lon="7.08285">
        <ele>278.3</ele>
        <time>2023-10-20T12:30:54Z</time>
      </trkpt>
      <trkpt lat="48.67122" lon="7.08314">
        <ele>278</ele>
        <time>2023-10-20T12:31:00Z</time>
      </trkpt>
      <trkpt lat="48.6711" lon="7.08334">
        <ele>278</ele>
        <time>2023-10-20T12:31:06Z</time>
      </trkpt>
      <trkpt lat="48.67091" lon="7.08345">
        <ele>278.1</ele>
        <time>2023-10-20T12:31:12Z</time>
      </trkpt>
      <trkpt lat="48.67076" lon="7.08363">
        <ele>278.1</ele>
        <time>2023-10-20T12:31:18Z</time>
      </trkpt>
      <trkpt lat="48.67067" lon="7.08387">
        <ele>278</ele>
        <time>2023-10-20T12:31:24Z</time>
      </trkpt>
      <trkpt lat="48.67065" lon="7.08404">
        <ele>277.9</ele>
        <time>2023-10-20T12:31:33Z</time>
      </trkpt>
      <trkpt lat="48.67098" lon="7.08345">
        <ele>277.7</ele>
        <time>2023-10-20T12:48:48Z</time>
      </trkpt>
      <trkpt lat="48.67097" lon="7.08346">
        <ele>277.6</ele>
        <time>2023-10-20T12:48:49Z</time>
      </trkpt>
      <trkpt lat="48.67087" lon="7.08369">
        <ele>277.6</ele>
        <time>2023-10-20T12:48:54Z</time>
      </trkpt>
      <trkpt lat="48.67077" lon="7.08395">
        <ele>277.7</ele>
        <time>2023-10-20T12:48:58Z</time>
      </trkpt>
      <trkpt lat="48.67069" lon="7.0842">
        <ele>277.6</ele>
        <time>2023-10-20T12:49:02Z</time>
      </trkpt>
      <trkpt lat="48.67064" lon="7.08451">
        <ele>277.7</ele>
        <time>2023-10-20T12:49:07Z</time>
      </trkpt>
      <trkpt lat="48.67068" lon="7.08462">
        <ele>277.7</ele>
        <time>2023-10-20T12:49:09Z</time>
      </trkpt>
      <trkpt lat="48.67085" lon="7.08472">
        <ele>278.1</ele>
        <time>2023-10-20T12:49:14Z</time>
      </trkpt>
      <trkpt lat="48.67104" lon="7.08466">
        <ele>278.7</ele>
        <time>2023-10-20T12:49:19Z</time>
      </trkpt>
      <trkpt lat="48.67116" lon="7.08445">
        <ele>278.8</ele>
        <time>2023-10-20T12:49:23Z</time>
      </trkpt>
      <trkpt lat="48.6713" lon="7.08425">
        <ele>278.9</ele>
        <time>2023-10-20T12:49:27Z</time>
      </trkpt>
      <trkpt lat="48.67143" lon="7.08404">
        <ele>279</ele>
        <time>2023-10-20T12:49:31Z</time>
      </trkpt>
      <trkpt lat="48.67155" lon="7.08383">
        <ele>279.1</ele>
        <time>2023-10-20T12:49:35Z</time>
      </trkpt>
      <trkpt lat="48.67168" lon="7.08363">
        <ele>279.2</ele>
        <time>2023-10-20T12:49:39Z</time>
      </trkpt>
      <trkpt lat="48.67183" lon="7.0834">
        <ele>279.2</ele>
        <time>2023-10-20T12:49:44Z</time>
      </trkpt>
      <trkpt lat="48.672" lon="7.0832">
        <ele>279.1</ele>
        <time>2023-10-20T12:49:49Z</time>
      </trkpt>
      <trkpt lat="48.67219" lon="7.08306">
        <ele>279</ele>
        <time>2023-10-20T12:49:54Z</time>
      </trkpt>
      <trkpt lat="48.67239" lon="7.08294">
        <ele>278.9</ele>
        <time>2023-10-20T12:49:59Z</time>
      </trkpt>
      <trkpt lat="48.67257" lon="7.0828">
        <ele>279</ele>
        <time>2023-10-20T12:50:04Z</time>
      </trkpt>
      <trkpt lat="48.67275" lon="7.08269">
        <ele>279</ele>
        <time>2023-10-20T12:50:09Z</time>
      </trkpt>
      <trkpt lat="48.67293" lon="7.08253">
        <ele>279</ele>
        <time>2023-10-20T12:50:14Z</time>
      </trkpt>
      <trkpt lat="48.67301" lon="7.08236">
        <ele>278.9</ele>
        <time>2023-10-20T12:50:18Z</time>
      </trkpt>
      <trkpt lat="48.67287" lon="7.08216">
        <ele>278.9</ele>
        <time>2023-10-20T12:50:23Z</time>
      </trkpt>
      <trkpt lat="48.67266" lon="7.08223">
        <ele>279</ele>
        <time>2023-10-20T12:50:28Z</time>
      </trkpt>
      <trkpt lat="48.67248" lon="7.0824">
        <ele>279</ele>
        <time>2023-10-20T12:50:33Z</time>
      </trkpt>
      <trkpt lat="48.67229" lon="7.08255">
        <ele>278.9</ele>
        <time>2023-10-20T12:50:38Z</time>
      </trkpt>
      <trkpt lat="48.67209" lon="7.08268">
        <ele>278.9</ele>
        <time>2023-10-20T12:50:43Z</time>
      </trkpt>
      <trkpt lat="48.67191" lon="7.08282">
        <ele>279</ele>
        <time>2023-10-20T12:50:48Z</time>
      </trkpt>
      <trkpt lat="48.67175" lon="7.08299">
        <ele>279.1</ele>
        <time>2023-10-20T12:50:53Z</time>
      </trkpt>
      <trkpt lat="48.6716" lon="7.08317">
        <ele>279.3</ele>
        <time>2023-10-20T12:50:59Z</time>
      </trkpt>
      <trkpt lat="48.67142" lon="7.08324">
        <ele>279.1</ele>
        <time>2023-10-20T12:51:05Z</time>
      </trkpt>
      <trkpt lat="48.67136" lon="7.08312">
        <ele>279.1</ele>
        <time>2023-10-20T12:51:08Z</time>
      </trkpt>
      <trkpt lat="48.67151" lon="7.0829">
        <ele>279.3</ele>
        <time>2023-10-20T12:51:13Z</time>
      </trkpt>
      <trkpt lat="48.67168" lon="7.08273">
        <ele>279.2</ele>
        <time>2023-10-20T12:51:18Z</time>
      </trkpt>
      <trkpt lat="48.67185" lon="7.08261">
        <ele>279</ele>
        <time>2023-10-20T12:51:22Z</time>
      </trkpt>
      <trkpt lat="48.67202" lon="7.08251">
        <ele>278.9</ele>
        <time>2023-10-20T12:51:26Z</time>
      </trkpt>
      <trkpt lat="48.67219" lon="7.08239">
        <ele>278.9</ele>
        <time>2023-10-20T12:51:30Z</time>
      </trkpt>
      <trkpt lat="48.67237" lon="7.08224">
        <ele>279</ele>
        <time>2023-10-20T12:51:35Z</time>
      </trkpt>
      <trkpt lat="48.67253" lon="7.08206">
        <ele>279</ele>
        <time>2023-10-20T12:51:40Z</time>
      </trkpt>
      <trkpt lat="48.67258" lon="7.08198">
        <ele>279</ele>
        <time>2023-10-20T12:51:42Z</time>
      </trkpt>
      <trkpt lat="48.6726" lon="7.08189">
        <ele>278.7</ele>
        <time>2023-10-20T12:51:44Z</time>
      </trkpt>
      <trkpt lat="48.67252" lon="7.08182">
        <ele>278.5</ele>
        <time>2023-10-20T12:51:46Z</time>
      </trkpt>
      <trkpt lat="48.67233" lon="7.08168">
        <ele>278.6</ele>
        <time>2023-10-20T12:51:51Z</time>
      </trkpt>
      <trkpt lat="48.67222" lon="7.08161">
        <ele>279.1</ele>
        <time>2023-10-20T12:51:54Z</time>
      </trkpt>
      <trkpt lat="48.67201" lon="7.08169">
        <ele>279.8</ele>
        <time>2023-10-20T12:51:59Z</time>
      </trkpt>
      <trkpt lat="48.67184" lon="7.08184">
        <ele>279.6</ele>
        <time>2023-10-20T12:52:04Z</time>
      </trkpt>
      <trkpt lat="48.67167" lon="7.082">
        <ele>279.3</ele>
        <time>2023-10-20T12:52:09Z</time>
      </trkpt>
      <trkpt lat="48.67157" lon="7.08209">
        <ele>279.5</ele>
        <time>2023-10-20T12:52:12Z</time>
      </trkpt>
      <trkpt lat="48.6715" lon="7.08217">
        <ele>279.6</ele>
        <time>2023-10-20T12:52:14Z</time>
      </trkpt>
      <trkpt lat="48.67136" lon="7.08237">
        <ele>279.6</ele>
        <time>2023-10-20T12:52:19Z</time>
      </trkpt>
      <trkpt lat="48.67124" lon="7.0825">
        <ele>279.4</ele>
        <time>2023-10-20T12:52:23Z</time>
      </trkpt>
      <trkpt lat="48.67121" lon="7.08261">
        <ele>279</ele>
        <time>2023-10-20T12:52:25Z</time>
      </trkpt>
      <trkpt lat="48.6712" lon="7.08273">
        <ele>278.5</ele>
        <time>2023-10-20T12:52:27Z</time>
      </trkpt>
      <trkpt lat="48.67121" lon="7.08302">
        <ele>278</ele>
        <time>2023-10-20T12:52:32Z</time>
      </trkpt>
      <trkpt lat="48.67117" lon="7.08328">
        <ele>277.9</ele>
        <time>2023-10-20T12:52:37Z</time>
      </trkpt>
      <trkpt lat="48.671" lon="7.08337">
        <ele>277.9</ele>
        <time>2023-10-20T12:52:42Z</time>
      </trkpt>
      <trkpt lat="48.67081" lon="7.08349">
        <ele>278</ele>
        <time>2023-10-20T12:52:47Z</time>
      </trkpt>
      <trkpt lat="48.67068" lon="7.08371">
        <ele>277.9</ele>
        <time>2023-10-20T12:52:52Z</time>
      </trkpt>
      <trkpt lat="48.67064" lon="7.08399">
        <ele>277.8</ele>
        <time>2023-10-20T12:52:57Z</time>
      </trkpt>
      <trkpt lat="48.67063" lon="7.08427">
        <ele>277.8</ele>
        <time>2023-10-20T12:53:02Z</time>
      </trkpt>
      <trkpt lat="48.67066" lon="7.08456">
        <ele>278</ele>
        <time>2023-10-20T12:53:07Z</time>
      </trkpt>
      <trkpt lat="48.67069" lon="7.0846">
        <ele>277.9</ele>
        <time>2023-10-20T12:53:08Z</time>
      </trkpt>
      <trkpt lat="48.67087" lon="7.08471">
        <ele>278.3</ele>
        <time>2023-10-20T12:53:13Z</time>
      </trkpt>
      <trkpt lat="48.6709" lon="7.08471">
        <ele>278.5</ele>
        <time>2023-10-20T12:53:14Z</time>
      </trkpt>
      <trkpt lat="48.671" lon="7.08472">
        <ele>278.7</ele>
        <time>2023-10-20T12:53:16Z</time>
      </trkpt>
      <trkpt lat="48.67107" lon="7.08467">
        <ele>278.7</ele>
        <time>2023-10-20T12:53:18Z</time>
      </trkpt>
      <trkpt lat="48.67112" lon="7.08458">
        <ele>278.8</ele>
        <time>2023-10-20T12:53:20Z</time>
      </trkpt>
      <trkpt lat="48.67124" lon="7.08434">
        <ele>278.8</ele>
        <time>2023-10-20T12:53:25Z</time>
      </trkpt>
      <trkpt lat="48.67138" lon="7.08411">
        <ele>279</ele>
        <time>2023-10-20T12:53:30Z</time>
      </trkpt>
      <trkpt lat="48.67152" lon="7.0839">
        <ele>279.1</ele>
        <time>2023-10-20T12:53:35Z</time>
      </trkpt>
      <trkpt lat="48.67166" lon="7.08368">
        <ele>279.2</ele>
        <time>2023-10-20T12:53:40Z</time>
      </trkpt>
      <trkpt lat="48.6718" lon="7.08346">
        <ele>279.3</ele>
        <time>2023-10-20T12:53:45Z</time>
      </trkpt>
      <trkpt lat="48.67197" lon="7.08328">
        <ele>279.1</ele>
        <time>2023-10-20T12:53:50Z</time>
      </trkpt>
      <trkpt lat="48.67215" lon="7.08311">
        <ele>279</ele>
        <time>2023-10-20T12:53:55Z</time>
      </trkpt>
      <trkpt lat="48.67235" lon="7.08297">
        <ele>278.9</ele>
        <time>2023-10-20T12:54:00Z</time>
      </trkpt>
      <trkpt lat="48.67255" lon="7.08285">
        <ele>278.9</ele>
        <time>2023-10-20T12:54:05Z</time>
      </trkpt>
      <trkpt lat="48.67273" lon="7.08271">
        <ele>279</ele>
        <time>2023-10-20T12:54:10Z</time>
      </trkpt>
      <trkpt lat="48.67291" lon="7.08258">
        <ele>279</ele>
        <time>2023-10-20T12:54:15Z</time>
      </trkpt>
      <trkpt lat="48.67301" lon="7.08243">
        <ele>279</ele>
        <time>2023-10-20T12:54:19Z</time>
      </trkpt>
      <trkpt lat="48.67294" lon="7.08223">
        <ele>278.9</ele>
        <time>2023-10-20T12:54:23Z</time>
      </trkpt>
      <trkpt lat="48.67276" lon="7.0822">
        <ele>279</ele>
        <time>2023-10-20T12:54:27Z</time>
      </trkpt>
      <trkpt lat="48.67267" lon="7.08225">
        <ele>279</ele>
        <time>2023-10-20T12:54:29Z</time>
      </trkpt>
      <trkpt lat="48.67253" lon="7.08238">
        <ele>279</ele>
        <time>2023-10-20T12:54:33Z</time>
      </trkpt>
      <trkpt lat="48.67234" lon="7.08251">
        <ele>278.9</ele>
        <time>2023-10-20T12:54:38Z</time>
      </trkpt>
      <trkpt lat="48.67215" lon="7.08265">
        <ele>278.9</ele>
        <time>2023-10-20T12:54:43Z</time>
      </trkpt>
      <trkpt lat="48.67195" lon="7.08278">
        <ele>279</ele>
        <time>2023-10-20T12:54:48Z</time>
      </trkpt>
      <trkpt lat="48.67179" lon="7.08294">
        <ele>279.1</ele>
        <time>2023-10-20T12:54:53Z</time>
      </trkpt>
      <trkpt lat="48.67163" lon="7.08313">
        <ele>279.3</ele>
        <time>2023-10-20T12:54:59Z</time>
      </trkpt>
      <trkpt lat="48.67145" lon="7.08327">
        <ele>279.2</ele>
        <time>2023-10-20T12:55:05Z</time>
      </trkpt>
      <trkpt lat="48.67135" lon="7.08312">
        <ele>279.2</ele>
        <time>2023-10-20T12:55:09Z</time>
      </trkpt>
      <trkpt lat="48.67138" lon="7.08301">
        <ele>279.3</ele>
        <time>2023-10-20T12:55:11Z</time>
      </trkpt>
      <trkpt lat="48.67155" lon="7.08281">
        <ele>279.2</ele>
        <time>2023-10-20T12:55:16Z</time>
      </trkpt>
      <trkpt lat="48.67174" lon="7.08265">
        <ele>279.1</ele>
        <time>2023-10-20T12:55:21Z</time>
      </trkpt>
      <trkpt lat="48.67193" lon="7.08252">
        <ele>279</ele>
        <time>2023-10-20T12:55:26Z</time>
      </trkpt>
      <trkpt lat="48.67212" lon="7.0824">
        <ele>278.9</ele>
        <time>2023-10-20T12:55:31Z</time>
      </trkpt>
      <trkpt lat="48.67229" lon="7.08226">
        <ele>278.9</ele>
        <time>2023-10-20T12:55:36Z</time>
      </trkpt>
      <trkpt lat="48.67245" lon="7.08209">
        <ele>279</ele>
        <time>2023-10-20T12:55:41Z</time>
      </trkpt>
      <trkpt lat="48.67256" lon="7.08194">
        <ele>279</ele>
        <time>2023-10-20T12:55:45Z</time>
      </trkpt>
      <trkpt lat="48.67255" lon="7.08185">
        <ele>278.9</ele>
        <time>2023-10-20T12:55:47Z</time>
      </trkpt>
      <trkpt lat="48.67236" lon="7.08168">
        <ele>278.9</ele>
        <time>2023-10-20T12:55:52Z</time>
      </trkpt>
      <trkpt lat="48.67217" lon="7.08157">
        <ele>280.1</ele>
        <time>2023-10-20T12:55:57Z</time>
      </trkpt>
      <trkpt lat="48.67197" lon="7.08166">
        <ele>280.8</ele>
        <time>2023-10-20T12:56:02Z</time>
      </trkpt>
      <trkpt lat="48.67178" lon="7.08182">
        <ele>280.5</ele>
        <time>2023-10-20T12:56:07Z</time>
      </trkpt>
      <trkpt lat="48.67162" lon="7.082">
        <ele>280.2</ele>
        <time>2023-10-20T12:56:12Z</time>
      </trkpt>
      <trkpt lat="48.67145" lon="7.0822">
        <ele>280.7</ele>
        <time>2023-10-20T12:56:18Z</time>
      </trkpt>
      <trkpt lat="48.67129" lon="7.08239">
        <ele>281</ele>
        <time>2023-10-20T12:56:24Z</time>
      </trkpt>
      <trkpt lat="48.6712" lon="7.08263">
        <ele>280</ele>
        <time>2023-10-20T12:56:29Z</time>
      </trkpt>
      <trkpt lat="48.6712" lon="7.08292">
        <ele>279.3</ele>
        <time>2023-10-20T12:56:34Z</time>
      </trkpt>
      <trkpt lat="48.67119" lon="7.08319">
        <ele>279.2</ele>
        <time>2023-10-20T12:56:39Z</time>
      </trkpt>
      <trkpt lat="48.67101" lon="7.08337">
        <ele>279.4</ele>
        <time>2023-10-20T12:56:45Z</time>
      </trkpt>
      <trkpt lat="48.67083" lon="7.08349">
        <ele>279.5</ele>
        <time>2023-10-20T12:56:50Z</time>
      </trkpt>
      <trkpt lat="48.67071" lon="7.0837">
        <ele>279.5</ele>
        <time>2023-10-20T12:56:55Z</time>
      </trkpt>
      <trkpt lat="48.67068" lon="7.08385">
        <ele>279.5</ele>
        <time>2023-10-20T12:56:59Z</time>
      </trkpt>
    </trkseg>
  </trk>
</gpx>